createdAt,value
2023-01-13T00:02:21.956Z,96.36
2023-01-13T00:04:48.447Z,96.46
2023-01-13T00:07:14.907Z,95.59
2023-01-13T00:09:41.268Z,95.71
2023-01-13T00:12:07.634Z,95.23
2023-01-13T00:14:35.939Z,95.75
2023-01-13T00:17:03.801Z,95.19
2023-01-13T00:19:30.327Z,94.88
2023-01-13T00:21:57.354Z,94.22
2023-01-13T00:24:23.937Z,94.41
2023-01-13T00:26:50.470Z,94.26
2023-01-13T00:29:16.992Z,94.55
2023-01-13T00:31:43.375Z,94.22
2023-01-13T00:34:09.854Z,94.75
2023-01-13T00:36:36.232Z,95.25
2023-01-13T00:39:03.210Z,94.57
2023-01-13T00:41:49.579Z,94.82
2023-01-13T00:44:15.952Z,94.70
2023-01-13T00:46:42.420Z,94.33
2023-01-13T00:49:08.904Z,93.85
2023-01-13T00:51:35.276Z,94.36
2023-01-13T00:54:01.727Z,94.56
2023-01-13T00:56:39.746Z,94.31
2023-01-13T00:59:07.099Z,94.85
2023-01-13T01:01:33.592Z,94.90
2023-01-13T01:04:00.059Z,93.85
2023-01-13T01:06:27.583Z,94.15
2023-01-13T01:08:55.165Z,93.22
2023-01-13T01:11:27.360Z,93.66
2023-01-13T01:13:55.416Z,93.50
2023-01-13T01:16:24.523Z,93.67
2023-01-13T01:18:52.306Z,93.75
2023-01-13T01:21:19.795Z,93.89
2023-01-13T01:23:46.394Z,94.39
2023-01-13T01:26:15.702Z,94.37
2023-01-13T01:28:43.097Z,93.61
2023-01-13T01:31:18.504Z,94.00
2023-01-13T01:33:48.871Z,94.88
2023-01-13T01:36:17.479Z,94.99
2023-01-13T01:38:44.778Z,95.13
2023-01-13T01:41:15.631Z,94.75
2023-01-13T01:44:08.553Z,95.51
2023-01-13T01:46:38.299Z,95.01
2023-01-13T01:52:06.877Z,94.95
2023-01-13T01:54:37.587Z,94.71
2023-01-13T01:57:04.798Z,94.97
2023-01-13T01:59:35.113Z,94.40
2023-01-13T02:02:02.263Z,94.42
2023-01-13T02:04:33.730Z,94.45
2023-01-13T02:07:02.264Z,95.29
2023-01-13T02:09:29.918Z,94.35
2023-01-13T02:12:15.022Z,95.00
2023-01-13T02:14:42.395Z,94.72
2023-01-13T02:17:26.085Z,95.14
2023-01-13T02:20:21.657Z,94.83
2023-01-13T02:23:41.964Z,96.78
2023-01-13T02:26:37.224Z,96.69
2023-01-13T02:29:57.061Z,96.56
2023-01-13T02:32:33.268Z,95.16
2023-01-13T02:35:27.333Z,95.62
2023-01-13T02:37:56.567Z,94.69
2023-01-13T02:40:46.185Z,94.65
2023-01-13T02:43:38.763Z,94.85
2023-01-13T02:46:09.820Z,94.22
2023-01-13T02:48:39.659Z,94.32
2023-01-13T02:51:12.710Z,93.19
2023-01-13T02:53:46.270Z,92.82
2023-01-13T02:56:14.924Z,93.12
2023-01-13T02:58:43.668Z,93.92
2023-01-13T03:01:10.148Z,93.21
2023-01-13T03:03:36.767Z,93.42
2023-01-13T03:06:23.188Z,93.07
2023-01-13T03:09:01.015Z,93.29
2023-01-13T03:11:33.394Z,92.83
2023-01-13T03:14:25.404Z,93.62
2023-01-13T03:17:05.274Z,94.30
2023-01-13T03:20:09.137Z,93.98
2023-01-13T03:22:48.682Z,93.60
2023-01-13T03:25:24.088Z,93.31
2023-01-13T03:27:55.648Z,92.49
2023-01-13T03:30:33.266Z,92.53
2023-01-13T03:33:05.187Z,92.50
2023-01-13T03:35:40.662Z,93.20
2023-01-13T03:38:39.385Z,93.15
2023-01-13T03:41:10.159Z,93.99
2023-01-13T03:44:12.578Z,93.22
2023-01-13T03:46:46.809Z,93.08
2023-01-13T03:49:18.073Z,93.29
2023-01-13T03:51:49.233Z,93.79
2023-01-13T03:54:19.017Z,94.96
2023-01-13T03:56:50.324Z,95.23
2023-01-13T03:59:21.303Z,96.50
2023-01-13T04:02:09.806Z,97.26
2023-01-13T04:04:45.359Z,96.70
2023-01-13T04:07:32.851Z,96.16
2023-01-13T04:10:03.965Z,96.15
2023-01-13T04:12:52.925Z,97.45
2023-01-13T04:15:22.885Z,99.09
2023-01-13T04:17:50.518Z,100.00
2023-01-13T04:20:17.699Z,100.00
2023-01-13T04:22:44.105Z,100.00
2023-01-13T04:25:11.497Z,100.00
2023-01-13T04:27:38.095Z,100.00
2023-01-13T04:30:05.388Z,100.00
2023-01-13T04:32:31.815Z,100.00
2023-01-13T04:34:58.212Z,100.00
2023-01-13T04:37:24.655Z,100.00
2023-01-13T04:39:51.127Z,100.00
2023-01-13T04:42:17.549Z,100.00
2023-01-13T04:44:43.951Z,100.00
2023-01-13T04:47:10.340Z,100.00
2023-01-13T04:49:36.710Z,100.00
2023-01-13T04:52:03.950Z,100.00
2023-01-13T04:54:30.494Z,100.00
2023-01-13T04:56:57.035Z,100.00
2023-01-13T04:59:23.463Z,100.00
2023-01-13T05:01:50.015Z,100.00
2023-01-13T05:04:17.058Z,100.00
2023-01-13T05:06:43.466Z,100.00
2023-01-13T05:09:12.337Z,100.00
2023-01-13T05:11:57.774Z,100.00
2023-01-13T05:14:42.522Z,100.00
2023-01-13T05:17:10.384Z,100.00
2023-01-13T05:19:40.875Z,100.00
2023-01-13T05:22:25.983Z,100.00
2023-01-13T05:25:10.848Z,100.00
2023-01-13T05:27:37.527Z,100.00
2023-01-13T05:30:05.140Z,97.98
2023-01-13T05:32:31.674Z,98.19
2023-01-13T05:34:58.227Z,97.71
2023-01-13T05:37:25.854Z,98.08
2023-01-13T05:40:11.247Z,98.98
2023-01-13T05:42:56.785Z,98.59
2023-01-13T05:45:23.569Z,97.14
2023-01-13T05:47:50.237Z,98.72
2023-01-13T05:50:17.103Z,97.21
2023-01-13T05:52:43.718Z,97.36
2023-01-13T05:55:11.271Z,96.81
2023-01-13T05:57:37.651Z,96.97
2023-01-13T06:00:04.901Z,97.75
2023-01-13T06:02:31.364Z,98.15
2023-01-13T06:04:57.935Z,98.71
2023-01-13T06:07:24.343Z,98.12
2023-01-13T06:09:50.799Z,94.75
2023-01-13T06:12:17.259Z,93.69
2023-01-13T06:14:43.721Z,93.56
2023-01-13T06:17:12.584Z,93.60
2023-01-13T06:19:39.332Z,91.81
2023-01-13T06:22:15.804Z,93.26
2023-01-13T06:24:43.276Z,93.62
2023-01-13T06:27:10.172Z,94.50
2023-01-13T06:29:36.592Z,94.48
2023-01-13T06:32:07.266Z,94.78
2023-01-13T06:34:35.531Z,95.20
2023-01-13T06:37:03.564Z,94.78
2023-01-13T06:39:31.167Z,93.54
2023-01-13T06:42:17.180Z,93.32
2023-01-13T06:44:45.291Z,93.29
2023-01-13T06:47:11.965Z,93.05
2023-01-13T06:49:38.462Z,93.38
2023-01-13T06:52:05.222Z,92.96
2023-01-13T06:54:31.887Z,93.36
2023-01-13T06:56:58.385Z,92.42
2023-01-13T06:59:25.270Z,92.68
2023-01-13T07:01:51.906Z,91.69
2023-01-13T07:04:19.082Z,90.77
2023-01-13T07:06:45.557Z,89.37
2023-01-13T07:09:12.151Z,89.55
2023-01-13T07:11:38.632Z,87.99
2023-01-13T07:14:23.554Z,87.69
2023-01-13T07:16:52.355Z,87.77
2023-01-13T07:19:23.579Z,87.02
2023-01-13T07:21:52.182Z,86.38
2023-01-13T07:24:19.903Z,86.36
2023-01-13T07:26:46.376Z,86.99
2023-01-13T07:29:12.888Z,86.68
2023-01-13T07:31:40.069Z,85.93
2023-01-13T07:34:07.548Z,86.40
2023-01-13T07:36:34.373Z,86.99
2023-01-13T07:39:01.579Z,87.30
2023-01-13T07:41:46.605Z,88.04
2023-01-13T07:44:13.028Z,87.52
2023-01-13T07:46:40.326Z,87.99
2023-01-13T07:49:07.290Z,88.58
2023-01-13T07:51:39.334Z,87.03
2023-01-13T07:54:06.644Z,87.38
2023-01-13T07:56:33.086Z,87.57
2023-01-13T07:59:00.557Z,88.78
2023-01-13T08:01:28.150Z,87.05
2023-01-13T08:03:56.237Z,87.44
2023-01-13T08:06:23.118Z,86.97
2023-01-13T08:08:49.584Z,85.45
2023-01-13T08:11:16.234Z,85.26
2023-01-13T08:13:42.695Z,84.78
2023-01-13T08:16:12.536Z,85.42
2023-01-13T08:18:39.428Z,85.32
2023-01-13T08:21:09.078Z,85.05
2023-01-13T08:23:36.246Z,84.14
2023-01-13T08:26:05.746Z,85.47
2023-01-13T08:28:32.476Z,85.86
2023-01-13T08:31:00.212Z,84.18
2023-01-13T08:33:26.764Z,84.30
2023-01-13T08:35:53.337Z,84.98
2023-01-13T08:38:20.371Z,84.86
2023-01-13T08:40:46.938Z,82.85
2023-01-13T08:43:13.691Z,81.96
2023-01-13T08:45:40.159Z,81.34
2023-01-13T08:48:06.600Z,80.98
2023-01-13T08:50:33.245Z,80.06
2023-01-13T08:53:00.147Z,80.45
2023-01-13T08:55:26.577Z,79.21
2023-01-13T08:57:56.213Z,78.31
2023-01-13T09:00:29.829Z,78.49
2023-01-13T09:02:56.271Z,74.78
2023-01-13T09:05:22.873Z,74.68
2023-01-13T09:07:49.297Z,73.14
2023-01-13T09:10:16.094Z,72.08
2023-01-13T09:13:01.210Z,71.63
2023-01-13T09:15:27.703Z,72.07
2023-01-13T09:17:54.461Z,70.54
2023-01-13T09:20:20.876Z,68.07
2023-01-13T09:22:47.399Z,67.68
2023-01-13T09:25:13.873Z,68.38
2023-01-13T09:27:40.368Z,69.34
2023-01-13T09:30:07.760Z,68.97
2023-01-13T09:32:35.079Z,69.15
2023-01-13T09:35:01.677Z,66.95
2023-01-13T09:37:30.661Z,67.31
2023-01-13T09:39:57.139Z,68.53
2023-01-13T09:43:06.201Z,64.57
2023-01-13T09:45:36.025Z,64.09
2023-01-13T09:48:13.594Z,65.57
2023-01-13T09:50:55.471Z,67.48
2023-01-13T09:53:28.225Z,63.67
2023-01-13T09:55:55.372Z,62.36
2023-01-13T09:58:22.070Z,60.60
2023-01-13T10:01:06.233Z,58.90
2023-01-13T10:03:35.279Z,58.15
2023-01-13T10:06:18.151Z,59.53
2023-01-13T10:08:46.199Z,58.88
2023-01-13T10:11:38.556Z,56.59
2023-01-13T10:14:23.767Z,57.79
2023-01-13T10:17:18.603Z,57.96
2023-01-13T10:19:52.584Z,55.80
2023-01-13T10:22:31.143Z,56.09
2023-01-13T10:25:41.936Z,56.00
2023-01-13T10:28:17.070Z,55.92
2023-01-13T10:30:47.103Z,56.30
2023-01-13T10:33:20.762Z,56.39
2023-01-13T10:35:58.017Z,55.24
2023-01-13T10:38:35.361Z,57.61
2023-01-13T10:41:05.376Z,56.94
2023-01-13T10:43:32.431Z,58.49
2023-01-13T10:46:10.255Z,57.22
2023-01-13T10:48:42.379Z,57.55
2023-01-13T10:51:26.200Z,58.48
2023-01-13T10:54:19.188Z,58.44
2023-01-13T10:56:46.739Z,58.68
2023-01-13T10:59:24.869Z,56.85
2023-01-13T11:01:59.446Z,57.84
2023-01-13T11:04:55.029Z,57.88
2023-01-13T11:07:35.671Z,55.25
2023-01-13T11:10:20.246Z,55.96
2023-01-13T11:13:18.250Z,56.12
2023-01-13T11:15:53.866Z,59.12
2023-01-13T11:18:35.787Z,58.09
2023-01-13T11:21:08.050Z,56.54
2023-01-13T11:23:41.437Z,57.41
2023-01-13T11:26:18.736Z,57.07
2023-01-13T11:29:02.002Z,54.65
2023-01-13T11:31:41.698Z,54.77
2023-01-13T11:34:32.562Z,54.49
2023-01-13T11:37:01.622Z,53.15
2023-01-13T11:39:47.016Z,52.93
2023-01-13T11:42:28.988Z,50.93
2023-01-13T11:45:17.013Z,51.27
2023-01-13T11:47:47.457Z,51.65
2023-01-13T11:50:18.595Z,52.90
2023-01-13T11:53:03.976Z,54.67
2023-01-13T11:55:58.943Z,56.83
2023-01-13T11:58:50.727Z,54.70
2023-01-13T12:01:27.481Z,56.63
2023-01-13T12:04:27.414Z,56.70
2023-01-13T12:07:00.113Z,58.25
2023-01-13T12:09:40.946Z,59.37
2023-01-13T12:12:23.338Z,60.99
2023-01-13T12:15:21.361Z,63.03
2023-01-13T12:18:18.154Z,62.44
2023-01-13T12:21:12.420Z,61.96
2023-01-13T12:23:46.787Z,63.03
2023-01-13T12:26:18.593Z,62.79
2023-01-13T12:29:06.280Z,63.70
2023-01-13T12:31:36.795Z,64.32
2023-01-13T12:34:12.366Z,65.08
2023-01-13T12:37:20.894Z,67.01
2023-01-13T12:40:05.832Z,67.55
2023-01-13T12:43:16.082Z,66.47
2023-01-13T12:45:42.662Z,64.21
2023-01-13T12:49:04.886Z,63.71
2023-01-13T12:51:57.444Z,64.29
2023-01-13T12:54:39.188Z,62.96
2023-01-13T12:57:21.594Z,63.96
2023-01-13T13:00:03.421Z,64.81
2023-01-13T13:02:31.363Z,63.60
2023-01-13T13:05:01.772Z,63.40
2023-01-13T13:07:31.105Z,62.74
2023-01-13T13:10:02.372Z,63.19
2023-01-13T13:13:11.094Z,63.90
2023-01-13T13:15:37.591Z,64.73
2023-01-13T13:18:23.796Z,63.60
2023-01-13T13:21:10.730Z,63.87
2023-01-13T13:24:05.406Z,67.15
2023-01-13T13:26:37.544Z,68.89
2023-01-13T13:29:28.606Z,71.75
2023-01-13T13:32:06.743Z,72.76
2023-01-13T13:34:57.467Z,73.28
2023-01-13T13:38:09.453Z,72.69
2023-01-13T13:41:01.450Z,70.95
2023-01-13T13:43:49.379Z,68.17
2023-01-13T13:46:49.234Z,67.78
2023-01-13T13:49:21.978Z,66.48
2023-01-13T13:52:02.170Z,67.37
2023-01-13T13:54:29.381Z,67.29
2023-01-13T13:56:56.321Z,67.09
2023-01-13T13:59:26.247Z,66.71
2023-01-13T14:02:02.126Z,68.23
2023-01-13T14:04:36.941Z,68.57
2023-01-13T14:07:18.132Z,67.48
2023-01-13T14:09:47.019Z,67.26
2023-01-13T14:12:19.912Z,68.21
2023-01-13T14:14:47.532Z,69.85
2023-01-13T14:17:25.617Z,70.68
2023-01-13T14:20:14.504Z,72.13
2023-01-13T14:22:47.199Z,71.85
2023-01-13T14:25:39.562Z,72.86
2023-01-13T14:28:30.208Z,73.60
2023-01-13T14:30:57.431Z,74.68
2023-01-13T14:33:38.876Z,75.60
2023-01-13T14:36:16.648Z,76.32
2023-01-13T14:38:46.019Z,77.06
2023-01-13T14:41:47.181Z,76.65
2023-01-13T14:44:25.664Z,75.00
2023-01-13T14:46:55.195Z,75.71
2023-01-13T14:49:28.841Z,75.57
2023-01-13T14:52:05.880Z,76.57
2023-01-13T14:54:43.111Z,75.28
2023-01-13T14:57:31.389Z,76.16
2023-01-13T15:00:16.405Z,75.51
2023-01-13T15:02:46.927Z,76.04
2023-01-13T15:05:19.367Z,75.50
2023-01-13T15:08:12.315Z,75.35
2023-01-13T15:10:44.755Z,74.34
2023-01-13T15:13:22.334Z,74.27
2023-01-13T15:15:54.271Z,73.70
2023-01-13T15:18:20.789Z,73.79
2023-01-13T15:20:47.540Z,73.53
2023-01-13T15:23:15.105Z,74.16
2023-01-13T15:25:43.005Z,74.14
2023-01-13T15:28:24.818Z,74.29
2023-01-13T15:30:53.339Z,74.43
2023-01-13T15:33:21.223Z,74.21
2023-01-13T15:35:50.894Z,74.46
2023-01-13T15:38:20.957Z,74.04
2023-01-13T15:40:49.284Z,74.54
2023-01-13T15:43:43.368Z,74.34
2023-01-13T15:46:32.156Z,74.66
2023-01-13T15:49:02.176Z,74.88
2023-01-13T15:51:28.553Z,74.06
2023-01-13T15:53:55.035Z,75.12
2023-01-13T15:56:26.622Z,74.97
2023-01-13T15:58:53.464Z,74.61
2023-01-13T16:01:20.092Z,74.64
2023-01-13T16:03:46.626Z,74.48
2023-01-13T16:06:20.433Z,75.04
2023-01-13T16:08:47.167Z,74.88
2023-01-13T16:11:13.853Z,75.62
2023-01-13T16:13:40.323Z,75.43
2023-01-13T16:16:17.919Z,75.23
2023-01-13T16:18:44.461Z,74.99
2023-01-13T16:21:13.898Z,75.30
2023-01-13T16:23:40.845Z,75.64
2023-01-13T16:26:27.264Z,75.05
2023-01-13T16:28:56.650Z,75.34
2023-01-13T16:31:29.199Z,75.03
2023-01-13T16:33:55.932Z,75.02
2023-01-13T16:36:22.732Z,75.00
2023-01-13T16:38:52.012Z,77.29
2023-01-13T16:41:19.860Z,74.94
2023-01-13T16:43:47.060Z,74.61
2023-01-13T16:46:22.895Z,74.53
2023-01-13T16:48:50.547Z,75.21
2023-01-13T16:51:16.990Z,75.22
2023-01-13T16:53:43.470Z,75.35
2023-01-13T16:56:26.344Z,75.60
2023-01-13T16:58:54.515Z,75.38
2023-01-13T17:01:33.035Z,75.86
2023-01-13T17:03:59.664Z,76.02
2023-01-13T17:06:35.242Z,76.15
2023-01-13T17:09:07.468Z,76.35
2023-01-13T17:11:34.649Z,76.56
2023-01-13T17:14:01.123Z,77.01
2023-01-13T17:16:44.384Z,76.81
2023-01-13T17:19:12.078Z,76.54
2023-01-13T17:21:38.471Z,76.84
2023-01-13T17:24:06.303Z,76.98
2023-01-13T17:26:48.967Z,76.56
2023-01-13T17:29:26.506Z,77.07
2023-01-13T17:31:53.425Z,77.03
2023-01-13T17:34:21.109Z,77.24
2023-01-13T17:36:47.812Z,76.92
2023-01-13T17:39:20.037Z,77.07
2023-01-13T17:41:47.031Z,76.62
2023-01-13T17:44:14.624Z,76.59
2023-01-13T17:46:42.156Z,76.99
2023-01-13T17:49:13.040Z,76.95
2023-01-13T17:51:39.471Z,76.86
2023-01-13T17:54:06.019Z,77.53
2023-01-13T17:56:32.515Z,77.05
2023-01-13T17:58:58.935Z,77.02
2023-01-13T18:01:30.726Z,76.86
2023-01-13T18:03:57.232Z,77.04
2023-01-13T18:06:24.107Z,76.66
2023-01-13T18:08:51.691Z,76.58
2023-01-13T18:11:19.997Z,77.04
2023-01-13T18:13:48.042Z,76.72
2023-01-13T18:16:17.169Z,75.99
2023-01-13T18:18:46.627Z,76.31
2023-01-13T18:21:43.416Z,76.10
2023-01-13T18:24:31.141Z,75.99
2023-01-13T18:27:16.375Z,75.91
2023-01-13T18:29:43.345Z,76.03
2023-01-13T18:32:10.013Z,76.60
2023-01-13T18:34:37.493Z,76.72
2023-01-13T18:37:05.336Z,76.80
2023-01-13T18:39:31.909Z,76.37
2023-01-13T18:42:16.952Z,76.32
2023-01-13T18:44:43.424Z,76.04
2023-01-13T18:47:10.002Z,76.49
2023-01-13T18:49:36.704Z,77.44
2023-01-13T18:52:03.466Z,76.34
2023-01-13T18:54:30.000Z,76.78
2023-01-13T18:56:57.461Z,76.64
2023-01-13T18:59:24.801Z,76.56
2023-01-13T19:01:51.920Z,76.94
2023-01-13T19:04:18.410Z,76.66
2023-01-13T19:06:49.842Z,77.23
2023-01-13T19:09:17.529Z,76.52
2023-01-13T19:11:46.726Z,77.43
2023-01-13T19:14:33.992Z,77.10
2023-01-13T19:17:02.351Z,77.17
2023-01-13T19:19:29.206Z,77.48
2023-01-13T19:21:56.413Z,77.60
2023-01-13T19:24:25.916Z,77.89
2023-01-13T19:26:53.449Z,77.33
2023-01-13T19:29:20.068Z,77.57
2023-01-13T19:31:46.659Z,77.63
2023-01-13T19:34:13.468Z,76.72
2023-01-13T19:36:40.041Z,76.70
2023-01-13T19:39:06.503Z,76.99
2023-01-13T19:41:51.516Z,78.52
2023-01-13T19:44:36.768Z,80.93
2023-01-13T19:47:04.069Z,81.68
2023-01-13T19:49:30.568Z,81.05
2023-01-13T19:51:57.070Z,82.42
2023-01-13T19:54:23.942Z,82.97
2023-01-13T19:56:50.458Z,82.41
2023-01-13T19:59:21.992Z,82.16
2023-01-13T20:01:48.777Z,81.89
2023-01-13T20:04:17.244Z,82.48
2023-01-13T20:06:44.187Z,82.50
2023-01-13T20:09:11.463Z,81.95
2023-01-13T20:11:38.086Z,82.00
2023-01-13T20:14:04.831Z,81.67
2023-01-13T20:16:33.139Z,81.58
2023-01-13T20:18:59.869Z,81.66
2023-01-13T20:21:26.523Z,80.93
2023-01-13T20:23:53.332Z,80.12
2023-01-13T20:26:20.786Z,79.82
2023-01-13T20:28:47.584Z,79.88
2023-01-13T20:31:14.809Z,79.85
2023-01-13T20:33:41.677Z,78.86
2023-01-13T20:36:09.183Z,79.40
2023-01-13T20:38:38.609Z,78.89
2023-01-13T20:41:26.728Z,79.51
2023-01-13T20:43:54.042Z,79.04
2023-01-13T20:46:21.009Z,79.51
2023-01-13T20:48:47.553Z,78.46
2023-01-13T20:51:14.337Z,78.86
2023-01-13T20:53:41.518Z,78.68
2023-01-13T20:56:09.191Z,81.01
2023-01-13T20:58:38.345Z,82.92
2023-01-13T21:01:05.511Z,83.32
2023-01-13T21:03:32.086Z,82.21
2023-01-13T21:05:58.631Z,82.34
2023-01-13T21:08:25.184Z,82.97
2023-01-13T21:10:51.644Z,82.48
2023-01-13T21:13:36.900Z,83.06
2023-01-13T21:16:03.746Z,83.17
2023-01-13T21:18:49.002Z,83.83
2023-01-13T21:21:16.152Z,84.11
2023-01-13T21:23:44.252Z,84.68
2023-01-13T21:26:14.503Z,85.31
2023-01-13T21:28:41.065Z,86.33
2023-01-13T21:31:09.359Z,88.00
2023-01-13T21:33:36.295Z,89.26
2023-01-13T21:36:11.675Z,88.91
2023-01-13T21:38:38.929Z,88.50
2023-01-13T21:41:08.058Z,86.68
2023-01-13T21:43:54.935Z,86.91
2023-01-13T21:46:42.160Z,86.76
2023-01-13T21:49:08.881Z,86.05
2023-01-13T21:51:36.730Z,85.54
2023-01-13T21:54:03.396Z,85.50
2023-01-13T21:56:29.948Z,85.92
2023-01-13T21:58:56.627Z,85.23
2023-01-13T22:01:23.440Z,85.15
2023-01-13T22:04:08.712Z,85.53
2023-01-13T22:06:35.242Z,86.02
2023-01-13T22:09:01.725Z,86.17
2023-01-13T22:11:31.450Z,86.08
2023-01-13T22:14:08.960Z,85.86
2023-01-13T22:16:49.526Z,86.10
2023-01-13T22:19:18.319Z,85.75
2023-01-13T22:21:44.941Z,85.46
2023-01-13T22:24:11.818Z,85.49
2023-01-13T22:26:38.366Z,85.31
2023-01-13T22:29:04.977Z,85.15
2023-01-13T22:31:31.865Z,85.27
2023-01-13T22:33:58.362Z,85.16
2023-01-13T22:36:25.020Z,84.97
2023-01-13T22:38:57.491Z,84.33
2023-01-13T22:41:24.113Z,83.23
2023-01-13T22:43:50.578Z,83.58
2023-01-13T22:46:17.417Z,84.18
2023-01-13T22:48:44.367Z,83.30
2023-01-13T22:51:14.073Z,83.31
2023-01-13T22:53:41.125Z,83.38
2023-01-13T22:56:09.965Z,83.12
2023-01-13T22:58:36.387Z,82.77
2023-01-13T23:01:14.874Z,82.28
2023-01-13T23:03:41.974Z,81.82
2023-01-13T23:06:08.615Z,81.46
2023-01-13T23:08:35.757Z,81.22
2023-01-13T23:11:08.202Z,80.66
2023-01-13T23:13:35.595Z,80.67
2023-01-13T23:16:09.968Z,80.56
2023-01-13T23:18:39.256Z,81.03
2023-01-13T23:21:10.952Z,80.69
2023-01-13T23:23:38.135Z,81.11
2023-01-13T23:26:06.423Z,81.59
2023-01-13T23:28:34.739Z,81.90
2023-01-13T23:31:09.754Z,81.82
2023-01-13T23:33:43.955Z,81.88
2023-01-13T23:36:29.510Z,81.94
2023-01-13T23:38:58.301Z,81.88
2023-01-13T23:41:26.602Z,81.85
2023-01-13T23:43:55.716Z,82.49
2023-01-13T23:46:23.140Z,81.94
2023-01-13T23:48:50.854Z,81.99
2023-01-13T23:51:17.956Z,82.27
2023-01-13T23:53:46.175Z,82.22
2023-01-13T23:56:25.420Z,81.90
2023-01-13T23:58:51.987Z,81.66
